x

Gooses Reef, Md (44062) Weather Station

8:50am - Mon 5th Dec 2016 All times are EST. -5 hours from GMT.

  • Wind
    7mph, 11mph gusts
  • Air Temp 44°f
  • Sea Pressure 1017.4mb
  • Gooses Reef, Md
  • Gooses Reef, Md

More Historic Weather Station data

Upgrade to MSW Pro to gain access to the past 30 days of data for over 8000 Wavebouys and Weather Stations around the globe.

Join Pro

Comparision Forecast

View Surf forecast
   
Mon 12/05 8:50am  -   -  7 11 mph 1017.4mb - 44f
8:40am  -   -  7 11 mph 1017.3mb - 44f
8:30am  -   -  9 11 mph 1017.2mb - 44f
8:20am  -   -  7 11 mph 1017.1mb - 44f
8:10am  -   -  7 9 mph 1016.9mb - 44f
8:00am 0.7ft  -  9 11 mph 1016.7mb 50f 44f
7:50am  -   -  9 11 mph 1016.5mb - 44f
7:40am  -   -  9 11 mph 1016.5mb - 44f
7:30am  -   -  11 13 mph 1016.5mb - 44f
7:20am  -   -  9 11 mph 1016.5mb - 44f
7:10am  -   -  9 13 mph 1016.6mb - 44f
7:00am 1ft 2s 9 11 mph 1016.7mb 50f 44f
6:50am  -   -  9 11 mph 1016.7mb - 44f
6:40am  -   -  9 11 mph 1016.6mb - 44f
6:30am  -   -  11 13 mph 1016.6mb - 44f
6:20am  -   -  11 13 mph 1016.7mb - 44f
6:10am  -   -  11 13 mph 1016.6mb - 44f
6:00am 1ft 2s 11 13 mph 1016.7mb 50f 44f
5:50am  -   -  13 16 mph 1016.7mb - 44f
5:40am  -   -  13 16 mph 1016.5mb - 44f
5:30am  -   -  13 16 mph 1016.5mb - 44f
5:20am  -   -  11 16 mph 1016.9mb - 43f
5:10am  -   -  13 16 mph 1017mb - 43f
5:00am 1ft 3s 13 16 mph 1017.1mb 50f 43f
4:50am  -   -  13 16 mph 1017.3mb - 43f
4:40am  -   -  13 16 mph 1017.3mb - 43f
4:30am  -   -  11 13 mph 1017.7mb - 43f
4:20am  -   -  9 11 mph 1017.9mb - 43f
4:10am  -   -  9 11 mph 1018mb - 42f
4:00am 1.3ft 3s 11 13 mph 1018.1mb 49f 43f
3:50am  -   -  13 16 mph 1017.8mb - 43f
3:40am  -   -  13 16 mph 1018.1mb - 43f
3:30am  -   -  13 18 mph 1018.3mb - 43f
3:20am  -   -  16 20 mph 1018.1mb - 43f
3:10am  -   -  13 18 mph 1018.1mb - 43f
3:00am 1.3ft 2s 13 16 mph 1018mb 49f 43f
2:50am  -   -  11 16 mph 1018.1mb - 42f
2:40am  -   -  11 16 mph 1018.2mb - 42f
2:30am  -   -  13 16 mph 1018.2mb - 42f
2:20am  -   -  11 16 mph 1018.1mb - 42f
2:10am  -   -  11 13 mph 1018.1mb - 42f
2:00am 1.3ft 3s 13 16 mph 1018mb 50f 42f
1:50am  -   -  13 18 mph 1018.2mb - 42f
1:40am  -   -  16 18 mph 1018.2mb - 42f
1:30am  -   -  16 20 mph 1018.2mb - 42f
1:20am  -   -  16 20 mph 1018.3mb - 43f
1:10am  -   -  16 20 mph 1018.3mb - 43f
1:00am 1.3ft 3s 16 18 mph 1018.5mb 50f 43f
12:50am  -   -  13 18 mph 1018.9mb - 43f
12:40am  -   -  16 18 mph 1018.9mb - 43f
12:30am  -   -  16 18 mph 1018.9mb - 43f
12:20am  -   -  13 16 mph 1019.4mb - 42f
12:10am  -   -  13 18 mph 1019.6mb - 42f
12:00am 1ft 2s 13 18 mph 1020mb 50f 43f
Sun 12/04 11:50pm  -   -  13 18 mph 1020.7mb - 43f
11:40pm  -   -  16 18 mph 1020.8mb - 43f
11:30pm  -   -  16 18 mph 1020.6mb - 43f
11:20pm  -   -  13 18 mph 1020.4mb - 44f
11:10pm  -   -  13 20 mph 1020.6mb - 44f
11:00pm 1ft 2s 13 16 mph 1021mb 50f 44f
10:50pm  -   -  13 18 mph 1021.2mb - 44f
10:40pm  -   -  13 18 mph 1021.3mb - 44f
10:30pm  -   -  16 18 mph 1021.3mb - 44f
10:20pm  -   -  16 18 mph 1021.3mb - 44f
10:10pm  -   -  13 18 mph 1021.5mb - 45f
10:00pm 1ft 2s 13 16 mph 1021.8mb 50f 45f
9:50pm  -   -  13 18 mph 1021.9mb - 45f
9:40pm  -   -  16 18 mph 1021.8mb - 45f
9:30pm  -   -  16 18 mph 1021.7mb - 45f
9:20pm  -   -  16 18 mph 1021.8mb - 46f
9:10pm  -   -  16 18 mph 1021.9mb - 46f
9:00pm 1ft 2s 13 18 mph 1021.8mb 50f 46f
8:50pm  -   -  13 16 mph 1022mb - 46f
8:40pm  -   -  13 16 mph 1022.1mb - 46f
8:30pm  -   -  11 13 mph 1022.2mb - 45f
8:20pm  -   -  13
mph
1022.3mb - 45f
8:10pm  -   -  13
mph
1022.4mb - 46f
8:00pm 0.7ft  -  13 16 mph 1022.3mb 50f 46f
7:50pm  -   -  13 16 mph 1022.5mb - 46f
7:40pm  -   -  11 13 mph 1022.6mb - 45f
7:30pm  -   -  11 13 mph 1022.8mb - 45f
7:20pm  -   -  11
mph
1022.6mb - 45f
7:10pm  -   -  11 13 mph 1022.3mb - 45f
7:00pm 0.3ft  -  11 13 mph 1022.6mb 49f 45f
6:50pm  -   -  9 11 mph 1022.7mb - 45f
6:40pm  -   -  9 11 mph 1022.8mb - 45f
6:30pm  -   -  9 11 mph 1022.9mb - 45f
6:20pm  -   -  9 11 mph 1022.9mb - 45f
6:10pm  -   -  9 11 mph 1023.1mb - 45f
6:00pm 0.3ft  -  7 9 mph 1023.2mb 49f 45f
5:50pm  -   -  7 9 mph 1023.4mb - 45f
5:40pm  -   -  7 9 mph 1023.3mb - 45f
5:30pm  -   -  7 9 mph 1023.3mb - 45f
5:20pm  -   -  4 7 mph 1023.5mb - 45f
5:10pm  -   -  7 9 mph 1023.4mb - 45f
5:00pm 0.3ft  -  7 9 mph 1023.5mb 49f 45f
4:50pm  -   -  7 9 mph 1023.6mb - 45f
4:40pm  -   -  4 7 mph 1023.7mb - 45f
4:30pm  -   -  4 7 mph 1023.8mb - 45f
4:20pm  -   -  4 7 mph 1023.9mb - 45f
4:10pm  -   -  4 9 mph 1023.8mb - 45f
4:00pm 0.3ft  -  7
mph
1023.6mb 50f 45f
3:50pm  -   -  4 7 mph 1024mb - 45f
3:40pm  -   -  4 7 mph 1024.1mb - 45f
3:30pm  -   -  4 7 mph 1024.1mb - 45f
3:20pm  -   -  4 7 mph 1023.9mb - 45f
3:10pm  -   -  4
mph
1023.7mb - 45f
3:00pm 0.3ft  -  2 4 mph 1023.9mb 50f 45f
2:50pm  -   -  2 4 mph 1024mb - 45f
2:40pm  -   -  2 4 mph 1024mb - 45f
2:30pm  -   -  2
mph
1024.2mb - 45f
2:20pm  -   -  2
mph
1024.2mb - 45f
2:10pm  -   -   -  2 mph 1024.4mb - 45f
2:00pm 0.7ft  -  2 4 mph 1024.5mb 50f 45f
1:50pm  -   -  2 4 mph 1024.5mb - 45f
1:40pm  -   -  4 7 mph 1024.4mb - 45f
1:30pm  -   -  4
mph
1024.6mb - 45f
1:20pm  -   -  4 7 mph 1024.7mb - 45f
1:10pm  -   -  4 7 mph 1024.7mb - 45f
1:00pm 0.7ft  -  7 9 mph 1024.8mb 50f 45f
12:50pm  -   -  4 7 mph 1024.8mb - 45f
12:40pm  -   -  7 9 mph 1024.8mb - 45f
12:30pm  -   -  4 7 mph 1024.9mb - 45f
12:20pm  -   -  7 9 mph 1025mb - 45f
12:10pm  -   -  7 9 mph 1025mb - 45f
12:00pm 1ft 2s 7 9 mph 1025mb 50f 44f
11:50am  -   -  7 11 mph 1025.3mb - 44f
11:40am  -   -  9
mph
1025.3mb - 44f
11:30am  -   -  9 11 mph 1025.4mb - 44f
11:20am  -   -  9 11 mph 1025.5mb - 44f
11:10am  -   -  9 11 mph 1025.7mb - 44f
11:00am 1ft 2s 11 13 mph 1025.9mb 50f 44f
10:50am  -   -  11 13 mph 1026.1mb - 44f
10:40am  -   -  11 13 mph 1026.2mb - 43f
10:30am  -   -  11 13 mph 1026.2mb - 43f
10:20am  -   -  11 13 mph 1026.3mb - 43f
10:10am  -   -  11 13 mph 1026.3mb - 43f
10:00am 1.3ft 2s 11 13 mph 1026.4mb 50f 43f
9:50am  -   -  11 13 mph 1026.3mb - 43f
9:40am  -   -  13 16 mph 1026.3mb - 43f
9:30am  -   -  13 16 mph 1026.2mb - 43f
9:20am  -   -  13 16 mph 1026mb - 42f
9:10am  -   -  13 16 mph 1026.2mb - 42f
9:00am 1.3ft 3s 13 16 mph 1026.1mb 50f 42f
8:50am  -   -  13 18 mph 1026.2mb - 42f
8:40am  -   -  13 16 mph 1026.1mb - 42f
8:30am  -   -  13 18 mph 1026mb - 42f
8:20am  -   -  13 18 mph 1026.1mb - 42f
8:10am  -   -  16 18 mph 1026.1mb - 42f
8:00am 1.3ft 3s 16 18 mph 1025.8mb 50f 42f
7:50am  -   -  16 18 mph 1025.6mb - 42f
7:40am  -   -  16 18 mph 1025.7mb - 42f
7:30am  -   -  16 18 mph 1025.8mb - 42f
7:20am  -   -  16 18 mph 1025.8mb - 42f
7:10am  -   -  16 20 mph 1025.7mb - 42f
7:00am 1.6ft 3s 16 20 mph 1025.5mb 50f 42f
6:50am  -   -  16 20 mph 1025.6mb - 42f
6:40am  -   -  18 20 mph 1025.7mb - 42f
6:30am  -   -  18 20 mph 1025.8mb - 42f
6:20am  -   -  18 22 mph 1025.5mb - 42f
6:10am  -   -  18 20 mph 1025.4mb - 42f
6:00am 1.3ft 3s 18 20 mph 1025.5mb 50f 42f
5:50am  -   -  16 20 mph 1025.5mb - 41f
5:40am  -   -  16 20 mph 1025.5mb - 42f
5:30am  -   -  16 20 mph 1025.5mb - 42f
5:20am  -   -  16 20 mph 1025.3mb - 42f
5:10am  -   -  16 18 mph 1025.3mb - 42f
5:00am 1.6ft 3s 16 18 mph 1025.2mb 50f 42f
4:50am  -   -  16 18 mph 1025.2mb - 42f
4:40am  -   -  16 18 mph 1025.4mb - 42f
4:30am  -   -  16 20 mph 1025.3mb - 42f
4:20am  -   -  16 18 mph 1025.1mb - 42f
4:10am  -   -  16 18 mph 1025mb - 42f
4:00am 1.6ft 3s 16 20 mph 1025mb 50f 42f
3:50am  -   -  16 20 mph 1025.1mb - 42f
3:40am  -   -  16 20 mph 1025.1mb - 42f
3:30am  -   -  18 20 mph 1025.2mb - 42f
3:20am  -   -  18 20 mph 1025.3mb - 42f
3:10am  -   -  18 22 mph 1025.5mb - 43f
3:00am 1.6ft 3s 18 20 mph 1025.5mb 50f 43f
2:50am  -   -  18 20 mph 1025.4mb - 43f
2:40am  -   -  20 25 mph 1025.5mb - 43f
2:30am  -   -  20 22 mph 1025.4mb - 43f
2:20am  -   -  18 20 mph 1025.3mb - 43f
2:10am  -   -  18 22 mph 1025.3mb - 43f
2:00am 1.6ft 3s 20 25 mph 1025.4mb 50f 43f
1:50am  -   -  20 25 mph 1025.5mb - 42f
1:40am  -   -  18 22 mph 1025.5mb - 42f
1:30am  -   -  18 22 mph 1025.6mb - 42f
1:20am  -   -  18 22 mph 1025.5mb - 42f
1:10am  -   -  18 22 mph 1025.5mb - 42f
1:00am 1.6ft 3s 18 20 mph 1025.7mb 50f 42f
12:50am  -   -  18 20 mph 1025.7mb - 43f
12:40am  -   -  18 20 mph 1025.7mb - 43f
12:30am  -   -  18 20 mph 1025.7mb - 43f
12:20am  -   -  18 20 mph 1025.7mb - 43f
12:10am  -   -  16 20 mph 1025.7mb - 43f
12:00am 1.6ft 3s 16 20 mph 1025.8mb 50f 43f
Sat 12/03 11:50pm  -   -  18 20 mph 1025.8mb - 43f
11:40pm  -   -  18 20 mph 1025.8mb - 43f
11:30pm  -   -  18 22 mph 1025.9mb - 43f
11:20pm  -   -  16 20 mph 1025.8mb - 43f
11:10pm  -   -  18 22 mph 1025.7mb - 43f
11:00pm 2ft 3s 18 22 mph 1025.6mb 50f 43f
10:50pm  -   -  18 22 mph 1025.5mb - 44f
10:40pm  -   -  18 22 mph 1025.3mb - 44f
10:30pm  -   -  18 20 mph 1025.3mb - 44f
10:20pm  -   -  18 20 mph 1025.2mb - 44f
10:10pm  -   -  18 20 mph 1025.1mb - 44f
10:00pm 1.6ft 3s 16 20 mph 1025.3mb 50f 44f
9:50pm  -   -  18 20 mph 1025.3mb - 44f
9:40pm  -   -  18 20 mph 1025.2mb - 44f
9:30pm  -   -  16 20 mph 1025mb - 44f
9:20pm  -   -  16 18 mph 1024.8mb - 44f
9:10pm  -   -  16 18 mph 1024.7mb - 44f
9:00pm 1.3ft 2s 16 18 mph 1024.6mb 50f 44f
8:50pm  -   -  16 20 mph 1024.7mb - 44f
8:40pm  -   -  16 20 mph 1024.5mb - 44f
8:30pm  -   -  16 20 mph 1024.5mb - 45f
8:20pm  -   -  18 22 mph 1024.4mb - 45f
8:10pm  -   -  18 22 mph 1024.3mb - 45f
8:00pm 1.6ft 3s 18 22 mph 1024.3mb 50f 45f
7:50pm  -   -  18 20 mph 1024.3mb - 45f
7:40pm  -   -  16 20 mph 1024.3mb - 45f
7:30pm  -   -  16 20 mph 1024.2mb - 46f
7:20pm  -   -  18 22 mph 1024.2mb - 46f
7:10pm  -   -  18 22 mph 1024.3mb - 46f
7:00pm 1.6ft 3s 18 20 mph 1024.3mb 50f 46f
6:50pm  -   -  16 20 mph 1024.4mb - 46f
6:40pm  -   -  16 20 mph 1024.3mb - 46f
6:30pm  -   -  16 20 mph 1024.2mb - 46f
6:20pm  -   -  16 20 mph 1024.1mb - 46f
6:10pm  -   -  16 20 mph 1024.1mb - 46f
6:00pm 1.6ft 3s 16 20 mph 1024.2mb 50f 46f
5:50pm  -   -  18 20 mph 1024.2mb - 47f
5:40pm  -   -  16 20 mph 1024.1mb - 47f
5:30pm  -   -  18 22 mph 1024mb - 47f
5:20pm  -   -  18 22 mph 1024mb - 47f
5:10pm  -   -  18 22 mph 1023.7mb - 47f
5:00pm 1.6ft 3s 18 22 mph 1023.6mb 50f 47f
4:50pm  -   -  20 22 mph 1023.6mb - 47f
4:40pm  -   -  20 22 mph 1023.5mb - 48f
4:30pm  -   -  18 22 mph 1023.5mb - 48f
4:20pm  -   -  20 25 mph 1023.5mb - 48f
4:10pm  -   -  18 25 mph 1023.6mb - 49f
4:00pm 1.6ft 3s 18 22 mph 1023.7mb 50f 49f
3:50pm  -   -  20 25 mph 1023.7mb - 49f
3:40pm  -   -  20 22 mph 1023.6mb - 49f
3:30pm  -   -  18 22 mph 1023.4mb - 50f
3:20pm  -   -  18 25 mph 1023.2mb - 50f
3:10pm  -   -  18 22 mph 1022.7mb - 49f
3:00pm 2ft 3s 18 22 mph 1022.5mb 50f 49f
2:50pm  -   -  18 22 mph 1022.3mb - 49f
2:40pm  -   -  18 22 mph 1022.1mb - 49f
2:30pm  -   -  16 22 mph 1022mb - 49f
2:20pm  -   -  20 22 mph 1021.8mb - 49f
2:10pm  -   -  18 25 mph 1021.7mb - 49f
2:00pm 2.5ft 3s 20 22 mph 1021.6mb 50f 49f
1:50pm  -   -  20 25 mph 1021.6mb - 49f
1:40pm  -   -  20 25 mph 1021.6mb - 49f
1:30pm  -   -  18 25 mph 1021.8mb - 49f
1:20pm  -   -  18 22 mph 1021.9mb - 49f
1:10pm  -   -  18 22 mph 1022.1mb - 49f
1:00pm 2.5ft 3s 20 27 mph 1022.3mb 50f 49f
12:50pm  -   -  18 25 mph 1022.4mb - 49f
12:40pm  -   -  20 22 mph 1022.5mb - 49f
12:30pm  -   -  20 25 mph 1022.7mb - 49f
12:20pm  -   -  20 25 mph 1022.8mb - 49f
12:10pm  -   -  20 25 mph 1022.8mb - 49f
12:00pm 2.5ft 3s 20 25 mph 1022.9mb 50f 48f
11:50am  -   -  20 27 mph 1022.9mb - 48f
11:40am  -   -  22 29 mph 1022.9mb - 48f
11:30am  -   -  20 25 mph 1023mb - 48f
11:20am  -   -  22 27 mph 1023.1mb - 48f
11:10am  -   -  20 27 mph 1023.3mb - 47f
11:00am 2.5ft 3s 22 27 mph 1023.3mb 50f 47f
10:50am  -   -  22 31 mph 1023.3mb - 47f
10:40am  -   -  22 27 mph 1023.2mb - 47f
10:30am  -   -  22 27 mph 1023.2mb - 47f
10:20am  -   -  22 27 mph 1023.3mb - 47f
10:10am  -   -  22 29 mph 1023.4mb - 46f
10:00am 2.5ft 3s 22 27 mph 1023.3mb 51f 46f
9:50am  -   -  22 29 mph 1023.1mb - 46f
9:40am  -   -  22 29 mph 1022.9mb - 46f
9:30am  -   -  22 29 mph 1022.8mb - 46f
9:20am  -   -  22 29 mph 1022.8mb - 46f
9:10am  -   -  22 27 mph 1022.9mb - 46f
9:00am 2ft 3s 22 27 mph 1022.9mb 51f 45f
8:50am  -   -  22 29 mph 1022.9mb - 45f
8:40am  -   -  20 27 mph 1022.8mb - 45f
8:30am  -   -  20 27 mph 1022.7mb - 45f
8:20am  -   -  20 27 mph 1022.6mb - 45f
8:10am  -   -  20 27 mph 1022.6mb - 45f
8:00am 2ft 3s 20 27 mph 1022.6mb 51f 45f
7:50am  -   -  22 27 mph 1022.4mb - 45f
7:40am  -   -  22 27 mph 1022.2mb - 45f
7:30am  -   -  22 27 mph 1022.1mb - 45f
7:20am  -   -  20 25 mph 1022.1mb - 45f
7:10am  -   -  20 25 mph 1022.1mb - 45f
7:00am 1.6ft 3s 20 25 mph 1022mb 51f 45f
6:50am  -   -  20 27 mph 1022mb - 45f
6:40am  -   -  20 25 mph 1021.8mb - 45f
6:30am  -   -  18 25 mph 1021.7mb - 45f
6:20am  -   -  20 22 mph 1021.5mb - 45f
6:10am  -   -  20 22 mph 1021.5mb - 45f
6:00am 1.3ft 3s 20 25 mph 1021.4mb 51f 45f
5:50am  -   -  20 22 mph 1021.3mb - 45f
5:40am  -   -  18 22 mph 1021.3mb - 45f
5:30am  -   -  20 22 mph 1021.3mb - 45f
5:20am  -   -  18 22 mph 1021.2mb - 46f
5:10am  -   -  18 25 mph 1021.1mb - 46f
5:00am 1.6ft 3s 18 25 mph 1021mb 51f 46f
4:50am  -   -  20 25 mph 1021mb - 46f
4:40am  -   -  20 25 mph 1021mb - 46f
4:30am  -   -  20 25 mph 1020.8mb - 46f
4:20am  -   -  20 22 mph 1020.5mb - 46f
4:10am  -   -  20 25 mph 1020.6mb - 46f
4:00am 1.6ft 3s 20 25 mph 1020.5mb 51f 46f
3:50am  -   -  20 25 mph 1020.2mb - 46f
3:40am  -   -  20 29 mph 1020.2mb - 46f
3:30am  -   -  18 25 mph 1020.3mb - 46f
3:20am  -   -  18 25 mph 1020.3mb - 45f
3:10am  -   -  18 20 mph 1020.4mb - 45f
3:00am 1.3ft 2s 16 20 mph 1020.5mb 51f 45f
2:50am  -   -  16 20 mph 1020.5mb - 45f
2:40am  -   -  18 20 mph 1020.5mb - 45f
2:30am  -   -  18 20 mph 1020.6mb - 45f
2:20am  -   -  18 22 mph 1020.6mb - 45f
2:10am  -   -  18 20 mph 1020.7mb - 45f
2:00am 1.3ft 3s 18 22 mph 1020.7mb 51f 45f
1:50am  -   -  18 20 mph 1020.6mb - 45f
1:40am  -   -  18 22 mph 1020.7mb - 45f
1:30am  -   -  16 20 mph 1020.7mb - 45f
1:20am  -   -  16 20 mph 1020.7mb - 45f
1:10am  -   -  16 20 mph 1020.8mb - 45f
1:00am 1.3ft 3s 18 20 mph 1020.8mb 51f 45f
12:50am  -   -  18 20 mph 1020.7mb - 45f
12:40am  -   -  18 22 mph 1020.6mb - 45f
12:30am  -   -  18 20 mph 1020.7mb - 46f
12:20am  -   -  18 22 mph 1020.5mb - 46f
12:10am  -   -  18 22 mph 1020.5mb - 45f
12:00am 1.3ft 2s 18 22 mph 1020.5mb 51f 45f
Fri 12/02 11:50pm  -   -  18 20 mph 1020.5mb - 46f
11:40pm  -   -  18 22 mph 1020.5mb - 45f
11:30pm  -   -  16 18 mph 1020.6mb - 45f
11:20pm  -   -  16 20 mph 1020.7mb - 45f
11:10pm  -   -  16 20 mph 1020.6mb - 45f
11:00pm 2ft 3s 16 22 mph 1020.6mb 51f 45f
10:50pm  -   -  18 22 mph 1020.6mb - 46f
10:40pm  -   -  20 25 mph 1020.5mb - 46f
10:30pm  -   -  20 27 mph 1020.2mb - 46f
10:20pm  -   -  22 27 mph 1020.3mb - 46f
10:10pm  -   -  22 27 mph 1020.4mb - 46f
10:00pm 2.5ft 3s 22 29 mph 1020.3mb 51f 46f
9:50pm  -   -  22 27 mph 1020.2mb - 46f
9:40pm  -   -  20 25 mph 1020.3mb - 46f
9:30pm  -   -  20 25 mph 1020.2mb - 46f
9:20pm  -   -  22 27 mph 1020.2mb - 46f
9:10pm  -   -  22 27 mph 1020.1mb - 46f
9:00pm 2.5ft 3s 22 27 mph 1020mb 51f 46f
8:50pm  -   -  22 27 mph 1019.8mb - 46f
8:40pm  -   -  25 31 mph 1019.7mb - 46f
8:30pm  -   -  22 29 mph 1019.7mb - 46f
8:20pm  -   -  22 29 mph 1019.6mb - 46f
8:10pm  -   -  25 29 mph 1019.5mb - 46f
8:00pm 2.5ft 3s 22 27 mph 1019.4mb 51f 46f
7:50pm  -   -  25 27 mph 1019.3mb - 46f
7:40pm  -   -  25 29 mph 1019.1mb - 46f
7:30pm  -   -  25 29 mph 1019.2mb - 46f
7:20pm  -   -  25 31 mph 1019.1mb - 47f
7:10pm  -   -  25 29 mph 1019.1mb - 47f
7:00pm 2ft 3s 22 27 mph 1019.1mb 51f 47f
6:50pm  -   -  22 29 mph 1019mb - 47f
6:30pm  -   -  22 27 mph 1018.6mb - 47f
6:20pm  -   -  22 27 mph 1018.5mb - 48f
6:10pm  -   -  20 27 mph 1018.4mb - 48f
5:50pm  -   -  20 25 mph 1018.1mb - 49f
4:50pm  -   -  20 25 mph 1017.5mb - 50f
4:20pm  -   -  16 20 mph 1017.2mb - 52f
4:10pm  -   -  13 16 mph 1017.3mb - 52f
4:00pm 1.3ft 3s 13 16 mph 1017.3mb 51f 53f
3:50pm  -   -  13 16 mph 1017.2mb - 53f
3:40pm  -   -  13 18 mph 1017mb - 53f
3:30pm  -   -  13 16 mph 1017mb - 53f
3:20pm  -   -  16 18 mph 1016.8mb - 53f
3:10pm  -   -  13 16 mph 1016.9mb - 53f
3:00pm 1.3ft 2s 11 16 mph 1016.8mb 51f 52f
2:50pm  -   -  11 13 mph 1016.8mb - 53f
2:40pm  -   -  13 18 mph 1016.7mb - 52f
2:30pm  -   -  13 16 mph 1016.7mb - 52f
2:20pm  -   -  13 18 mph 1016.8mb - 52f
2:10pm  -   -  13 18 mph 1016.8mb - 52f
2:00pm 1.3ft 3s 13 20 mph 1016.7mb 51f 52f
1:50pm  -   -  16 20 mph 1016.7mb - 52f
1:40pm  -   -  16 20 mph 1016.7mb - 52f
1:30pm  -   -  13 20 mph 1016.8mb - 51f
1:20pm  -   -  13 16 mph 1016.9mb - 51f
1:10pm  -   -  13 16 mph 1016.9mb - 51f
1:00pm 1.6ft 3s 13 18 mph 1017mb 51f 51f
12:50pm  -   -  13 18 mph 1017.1mb - 51f
12:40pm  -   -  16 20 mph 1017.2mb - 51f
12:30pm  -   -  13 18 mph 1017.3mb - 51f
12:20pm  -   -  13 18 mph 1017.4mb - 51f
12:10pm  -   -  16 18 mph 1017.5mb - 50f
12:00pm 1.6ft 3s 16 20 mph 1017.7mb 51f 50f
11:50am  -   -  16 20 mph 1017.8mb - 50f
11:40am  -   -  13 18 mph 1017.9mb - 50f
11:30am  -   -  13 16 mph 1018.1mb - 49f
11:20am  -   -  13 18 mph 1018.2mb - 49f
11:10am  -   -  13 18 mph 1018.4mb - 49f
11:00am 1.3ft 3s 13 18 mph 1018.5mb 51f 49f
10:50am  -   -  13 18 mph 1018.6mb - 49f
10:40am  -   -  16 18 mph 1018.8mb - 49f
10:30am  -   -  16 18 mph 1018.8mb - 48f
10:20am  -   -  16 20 mph 1018.9mb - 48f
10:10am  -   -  16 20 mph 1019mb - 48f
10:00am 1.3ft 2s 16 20 mph 1018.9mb 51f 48f
9:50am  -   -  16 20 mph 1018.9mb - 47f
9:40am  -   -  13 18 mph 1018.9mb - 47f
9:30am  -   -  11 16 mph 1019mb - 46f
9:20am  -   -  11 16 mph 1019mb - 46f
9:10am  -   -  13 16 mph 1018.9mb - 46f
9:00am 1.3ft 2s 13 18 mph 1018.7mb 51f 46f
8:50am  -   -  13 16 mph 1018.5mb - 45f
8:40am  -   -  13 18 mph 1018.5mb - 45f
8:30am  -   -  13 16 mph 1018.5mb - 45f
8:20am  -   -  16 18 mph 1018.5mb - 46f
8:10am  -   -  16 20 mph 1018.3mb - 46f
8:00am 1.3ft 2s 16 18 mph 1018.5mb 51f 45f
7:50am  -   -  16 18 mph 1018.4mb - 46f
7:40am  -   -  16 18 mph 1018.3mb - 46f
7:30am  -   -  16 18 mph 1018.1mb - 45f
7:20am  -   -  16 18 mph 1018mb - 46f
7:10am  -   -  16 20 mph 1017.8mb - 46f
7:00am 1ft 2s 13 18 mph 1017.7mb 51f 46f
6:50am  -   -  13 18 mph 1017.6mb - 46f
6:40am  -   -  13 16 mph 1017.5mb - 46f
6:30am  -   -  13 16 mph 1017.5mb - 46f
6:20am  -   -  13 16 mph 1017.4mb - 46f
6:10am  -   -  16 18 mph 1017.3mb - 46f
6:00am 1.3ft 2s 13 16 mph 1017.2mb 51f 46f
5:50am  -   -  11 16 mph 1017.1mb - 46f
5:40am  -   -  11 16 mph 1017.1mb - 46f
5:30am  -   -  9 16 mph 1017mb - 46f
5:20am  -   -  11 13 mph 1017mb - 46f
5:10am  -   -  11 13 mph 1017mb - 46f
5:00am 1.3ft 3s 9 13 mph 1017mb 51f 46f
4:50am  -   -  9 13 mph 1017mb - 46f
4:40am  -   -  11 13 mph 1016.9mb - 46f
4:30am  -   -  11 13 mph 1016.9mb - 46f
4:20am  -   -  13 16 mph 1016.8mb - 47f
4:10am  -   -  13 18 mph 1016.7mb - 47f
4:00am 1.3ft 3s 13 18 mph 1016.7mb 51f 47f
3:50am  -   -  16 18 mph 1016.6mb - 47f
3:40am  -   -  16 20 mph 1016.6mb - 47f
3:30am  -   -  16 20 mph 1016.5mb - 47f
3:20am  -   -  16 18 mph 1016.5mb - 47f
3:10am  -   -  16 20 mph 1016.3mb - 47f
3:00am 1.3ft 2s 18 22 mph 1016.2mb 52f 47f
2:50am  -   -  16 20 mph 1016.4mb - 47f
2:40am  -   -  13 18 mph 1016.5mb - 47f
2:30am  -   -  16 18 mph 1016.3mb - 47f
2:20am  -   -  16 20 mph 1015.9mb - 47f
2:10am  -   -  18 25 mph 1015.8mb - 47f
2:00am 1.3ft 3s 16 20 mph 1015.8mb 52f 48f
1:50am  -   -  16 22 mph 1015.6mb - 48f
1:40am  -   -  16 20 mph 1015.6mb - 48f
1:30am  -   -  18 25 mph 1015.4mb - 48f
1:20am  -   -  20 25 mph 1015.4mb - 48f
1:10am  -   -  13 18 mph 1015.6mb - 47f
1:00am 1ft 2s 13 18 mph 1015.4mb 52f 47f
12:50am  -   -  13 16 mph 1015.6mb - 47f
12:40am  -   -  9 13 mph 1015.6mb - 47f
12:30am  -   -  9 11 mph 1015.7mb - 47f
12:20am  -   -  11 13 mph 1015.7mb - 47f
12:10am  -   -  11 16 mph 1015.8mb - 47f
12:00am 1.3ft 2s 11 13 mph 1015.8mb 52f 47f
Thu 12/01 11:50pm  -   -  9 13 mph 1015.6mb - 47f
11:40pm  -   -  11 13 mph 1015.2mb - 47f
11:30pm  -   -  11 13 mph 1015.2mb - 48f
11:20pm  -   -  13 16 mph 1015.2mb - 48f
11:10pm  -   -  13 16 mph 1015.1mb - 48f
11:00pm 1.3ft 2s 13 16 mph 1014.9mb 52f 48f
10:50pm  -   -  13 16 mph 1014.9mb - 48f
10:40pm  -   -  13 16 mph 1014.9mb - 48f
10:30pm  -   -  13 18 mph 1015mb - 48f
10:20pm  -   -  16 18 mph 1015mb - 48f
10:10pm  -   -  16 18 mph 1014.7mb - 48f
10:00pm 1.6ft 3s 16 20 mph 1014.5mb 52f 48f
9:50pm  -   -  16 20 mph 1014.5mb - 49f
9:40pm  -   -  16 20 mph 1014.4mb - 49f
9:30pm  -   -  18 22 mph 1014.1mb - 49f
9:20pm  -   -  18 25 mph 1014mb - 49f
9:10pm  -   -  18 22 mph 1013.9mb - 49f
9:00pm 1.6ft 3s 16 20 mph 1013.7mb 52f 49f
8:50pm  -   -  18 22 mph 1013.6mb - 49f
8:30pm  -   -  18 20 mph 1013.6mb - 50f
8:20pm  -   -  18 20 mph 1013.5mb - 50f
8:10pm  -   -  18 22 mph 1013.3mb - 50f
8:00pm 1.6ft 3s 16 20 mph 1013.3mb 52f 50f
7:50pm  -   -  18 25 mph 1013.2mb - 50f
7:40pm  -   -  18 22 mph 1013.1mb - 50f
7:30pm  -   -  18 20 mph 1013mb - 50f
7:20pm  -   -  18 22 mph 1013mb - 50f
7:10pm  -   -  18 22 mph 1012.9mb - 51f
7:00pm 2ft 3s 18 22 mph 1012.8mb 52f 51f
6:50pm  -   -  20 25 mph 1012.7mb - 51f
6:40pm  -   -  20 25 mph 1012.6mb - 51f
6:30pm  -   -  20 27 mph 1012.4mb - 51f
6:20pm  -   -  20 25 mph 1012.1mb - 52f
6:10pm  -   -  22 27 mph 1011.9mb - 52f
6:00pm 1.6ft 3s 20 25 mph 1011.8mb 52f 52f
5:50pm  -   -  20 27 mph 1011.6mb - 53f
5:40pm  -   -  20 25 mph 1011.4mb - 53f
5:30pm  -   -  20 22 mph 1011.1mb - 53f
5:20pm  -   -  13 20 mph 1011mb - 54f
5:10pm  -   -  13 18 mph 1010.9mb - 54f
5:00pm 1ft 2s 11 16 mph 1010.7mb 52f 55f
4:50pm  -   -  11 13 mph 1010.5mb - 55f
4:40pm  -   -  9 11 mph 1010.3mb - 55f
4:30pm  -   -  11 13 mph 1010.2mb - 55f
4:20pm  -   -  11 13 mph 1010.1mb - 55f
4:10pm  -   -  11 16 mph 1010mb - 55f
4:00pm 1ft 2s 9 11 mph 1009.8mb 52f 55f
3:50pm  -   -  7 9 mph 1009.7mb - 56f
3:40pm  -   -  7
mph
1009.5mb - 55f
3:30pm  -   -  7 11 mph 1009.3mb - 56f
3:20pm  -   -  9 11 mph 1009.1mb - 55f
3:10pm  -   -  7 9 mph 1009mb - 56f
3:00pm 1ft 2s 11 13 mph 1008.9mb 52f 56f